createdAt,value
2018-12-13T00:00:02.486Z,72.40
2018-12-13T00:02:31.036Z,72.60
2018-12-13T00:05:01.659Z,72.60
2018-12-13T00:07:31.243Z,70.80
2018-12-13T00:09:59.492Z,70.90
2018-12-13T00:12:30.535Z,71.30
2018-12-13T00:14:59.319Z,69.40
2018-12-13T00:17:28.002Z,69.60
2018-12-13T00:19:57.151Z,69.00
2018-12-13T00:22:26.428Z,68.80
2018-12-13T00:24:55.029Z,69.00
2018-12-13T00:27:23.451Z,69.80
2018-12-13T00:29:52.889Z,69.90
2018-12-13T00:32:22.119Z,69.30
2018-12-13T00:34:50.763Z,69.10
2018-12-13T00:37:19.534Z,69.40
2018-12-13T00:39:48.375Z,69.20
2018-12-13T00:42:17.068Z,69.70
2018-12-13T00:44:45.322Z,68.20
2018-12-13T00:47:13.816Z,68.00
2018-12-13T00:49:42.205Z,69.20
2018-12-13T00:52:10.815Z,69.50
2018-12-13T00:54:39.422Z,68.70
2018-12-13T00:57:07.979Z,68.90
2018-12-13T00:59:36.484Z,70.10
2018-12-13T01:02:05.030Z,70.30
2018-12-13T01:04:33.629Z,69.60
2018-12-13T01:07:02.315Z,70.40
2018-12-13T01:09:31.658Z,70.90
2018-12-13T01:12:00.692Z,71.10
2018-12-13T01:14:29.343Z,71.70
2018-12-13T01:16:57.619Z,71.90
2018-12-13T01:19:25.873Z,72.60
2018-12-13T01:21:54.625Z,73.00
2018-12-13T01:26:52.049Z,72.90
2018-12-13T01:29:20.712Z,73.60
2018-12-13T01:31:49.530Z,73.30
2018-12-13T01:34:18.216Z,73.40
2018-12-13T01:36:52.400Z,73.20
2018-12-13T01:39:19.402Z,73.80
2018-12-13T01:41:47.771Z,73.00
2018-12-13T01:44:16.393Z,73.00
2018-12-13T01:46:44.912Z,74.20
2018-12-13T01:49:13.836Z,73.20
2018-12-13T01:51:42.882Z,72.10
2018-12-13T01:54:11.517Z,72.50
2018-12-13T01:56:39.986Z,72.90
2018-12-13T01:59:08.359Z,72.00
2018-12-13T02:01:36.795Z,72.10
2018-12-13T02:04:05.477Z,72.10
2018-12-13T02:06:35.902Z,72.40
2018-12-13T02:09:06.025Z,73.30
2018-12-13T02:11:35.857Z,73.30
2018-12-13T02:14:04.468Z,72.80
2018-12-13T02:16:32.874Z,73.20
2018-12-13T02:19:01.617Z,73.10
2018-12-13T02:21:31.327Z,73.10
2018-12-13T02:24:00.398Z,73.20
2018-12-13T02:26:29.065Z,73.20
2018-12-13T02:28:57.335Z,72.90
2018-12-13T02:31:25.858Z,73.40
2018-12-13T02:33:55.323Z,72.80
2018-12-13T02:36:29.989Z,72.80
2018-12-13T02:38:58.654Z,72.90
2018-12-13T02:41:26.935Z,73.00
2018-12-13T02:43:55.233Z,73.10
2018-12-13T02:46:23.573Z,73.10
2018-12-13T02:49:04.701Z,73.00
2018-12-13T02:51:34.717Z,72.70
2018-12-13T02:54:05.059Z,72.70
2018-12-13T02:56:33.830Z,73.00
2018-12-13T02:59:02.117Z,73.00
2018-12-13T03:01:32.136Z,73.00
2018-12-13T03:04:00.415Z,72.70
2018-12-13T03:06:28.726Z,72.90
2018-12-13T03:08:57.521Z,72.90
2018-12-13T03:11:25.864Z,72.70
2018-12-13T03:13:54.277Z,73.00
2018-12-13T03:16:25.866Z,72.80
2018-12-13T03:18:54.233Z,72.60
2018-12-13T03:21:22.776Z,72.60
2018-12-13T03:23:51.086Z,73.00
2018-12-13T03:26:19.824Z,72.60
2018-12-13T03:28:48.747Z,72.60
2018-12-13T03:31:18.223Z,72.60
2018-12-13T03:33:47.626Z,73.30
2018-12-13T03:36:16.185Z,72.60
2018-12-13T03:38:44.473Z,73.30
2018-12-13T03:41:14.388Z,73.00
2018-12-13T03:43:44.287Z,71.80
2018-12-13T03:46:12.914Z,72.40
2018-12-13T03:48:41.433Z,71.70
2018-12-13T03:51:10.047Z,72.00
2018-12-13T03:53:38.354Z,72.20
2018-12-13T03:56:06.946Z,71.70
2018-12-13T03:58:35.179Z,71.60
2018-12-13T04:01:03.662Z,71.90
2018-12-13T04:03:32.196Z,70.90
2018-12-13T04:08:29.489Z,70.50
2018-12-13T04:10:58.067Z,70.90
2018-12-13T04:18:34.482Z,71.10
2018-12-13T04:21:02.811Z,70.60
2018-12-13T04:23:31.079Z,70.10
2018-12-13T04:25:59.369Z,70.20
2018-12-13T04:28:27.676Z,70.40
2018-12-13T04:30:55.979Z,70.80
2018-12-13T04:33:24.231Z,70.40
2018-12-13T04:43:18.080Z,70.60
2018-12-13T04:45:46.365Z,71.40
2018-12-13T04:48:14.945Z,72.70
2018-12-13T04:50:43.522Z,73.80
2018-12-13T04:53:12.078Z,74.30
2018-12-13T04:55:40.653Z,70.80
2018-12-13T04:58:09.071Z,67.50
2018-12-13T05:00:37.492Z,67.40
2018-12-13T05:03:06.333Z,67.50
2018-12-13T05:05:34.820Z,66.50
2018-12-13T05:08:03.182Z,66.90
2018-12-13T05:10:49.516Z,67.50
2018-12-13T05:13:18.701Z,67.40
2018-12-13T05:15:47.005Z,68.40
2018-12-13T05:18:15.514Z,68.90
2018-12-13T05:20:43.799Z,69.10
2018-12-13T05:23:12.349Z,69.10
2018-12-13T05:25:42.944Z,68.00
2018-12-13T05:28:11.490Z,68.00
2018-12-13T05:30:39.905Z,68.00
2018-12-13T05:33:08.247Z,67.70
2018-12-13T05:35:36.572Z,68.40
2018-12-13T05:38:05.107Z,68.70
2018-12-13T05:40:33.381Z,68.60
2018-12-13T05:43:03.030Z,69.30
2018-12-13T05:45:31.331Z,69.10
2018-12-13T05:47:59.678Z,69.30
2018-12-13T05:50:28.658Z,68.50
2018-12-13T05:52:56.949Z,68.10
2018-12-13T05:55:25.284Z,68.60
2018-12-13T05:57:53.563Z,68.90
2018-12-13T06:00:21.897Z,68.80
2018-12-13T06:05:21.665Z,69.90
2018-12-13T06:07:54.921Z,69.10
2018-12-13T06:10:20.735Z,68.70
2018-12-13T06:12:49.316Z,70.40
2018-12-13T06:15:17.833Z,70.70
2018-12-13T06:17:46.057Z,70.70
2018-12-13T06:20:14.569Z,70.40
2018-12-13T06:22:44.181Z,69.20
2018-12-13T06:25:12.800Z,69.60
2018-12-13T06:27:41.345Z,69.30
2018-12-13T06:30:10.082Z,69.20
2018-12-13T06:32:38.310Z,68.60
2018-12-13T06:35:06.697Z,69.10
2018-12-13T06:37:35.169Z,68.00
2018-12-13T06:40:04.002Z,68.30
2018-12-13T06:42:32.573Z,68.10
2018-12-13T06:45:00.918Z,67.90
2018-12-13T06:47:29.441Z,67.50
2018-12-13T06:49:57.720Z,67.40
2018-12-13T06:54:54.742Z,66.60
2018-12-13T06:57:23.296Z,67.00
2018-12-13T06:59:51.837Z,66.90
2018-12-13T07:02:20.186Z,67.30
2018-12-13T07:04:48.417Z,66.40
2018-12-13T07:07:16.708Z,67.00
2018-12-13T07:09:45.253Z,66.50
2018-12-13T07:14:42.080Z,65.20
2018-12-13T07:17:10.366Z,65.30
2018-12-13T07:19:39.254Z,65.70
2018-12-13T07:22:07.532Z,65.70
2018-12-13T07:24:35.815Z,66.70
2018-12-13T07:27:04.117Z,66.10
2018-12-13T07:29:32.382Z,65.60
2018-12-13T07:32:00.658Z,66.00
2018-12-13T07:34:29.283Z,65.90
2018-12-13T07:36:57.599Z,64.50
2018-12-13T07:39:26.097Z,64.00
2018-12-13T07:44:22.905Z,63.00
2018-12-13T07:46:51.550Z,63.60
2018-12-13T07:49:20.097Z,63.00
2018-12-13T07:51:48.720Z,63.20
2018-12-13T07:54:17.287Z,63.40
2018-12-13T07:56:45.576Z,63.00
2018-12-13T07:59:13.832Z,64.90
2018-12-13T08:01:42.341Z,63.00
2018-12-13T08:04:10.694Z,62.80
2018-12-13T08:06:39.400Z,62.20
2018-12-13T08:09:09.160Z,65.10
2018-12-13T08:11:37.494Z,61.20
2018-12-13T08:14:07.550Z,60.10
2018-12-13T08:19:15.630Z,63.30
2018-12-13T08:21:46.260Z,60.80
2018-12-13T08:24:14.542Z,60.80
2018-12-13T08:26:44.854Z,60.40
2018-12-13T08:29:13.139Z,59.90
2018-12-13T08:34:09.746Z,60.00
2018-12-13T08:36:38.080Z,58.60
2018-12-13T08:39:10.005Z,59.10
2018-12-13T08:41:38.581Z,58.50
2018-12-13T08:44:06.919Z,58.80
2018-12-13T08:46:36.580Z,59.40
2018-12-13T08:49:05.484Z,59.80
2018-12-13T08:51:33.847Z,60.00
2018-12-13T08:54:02.136Z,59.00
2018-12-13T08:56:30.693Z,59.30
2018-12-13T08:58:59.259Z,59.10
2018-12-13T09:01:28.018Z,59.20
2018-12-13T09:03:56.470Z,59.10
2018-12-13T09:06:25.134Z,59.70
2018-12-13T09:08:53.411Z,59.60
2018-12-13T09:11:21.950Z,59.10
2018-12-13T09:13:50.269Z,59.50
2018-12-13T09:18:47.277Z,59.30
2018-12-13T09:21:16.806Z,59.80
2018-12-13T09:23:45.343Z,58.70
2018-12-13T09:26:20.605Z,59.10
2018-12-13T09:28:48.838Z,59.30
2018-12-13T09:31:17.153Z,58.70
2018-12-13T09:33:45.786Z,58.90
2018-12-13T09:36:14.089Z,58.10
2018-12-13T09:38:42.361Z,58.30
2018-12-13T09:41:10.676Z,58.50
2018-12-13T09:43:38.920Z,57.80
2018-12-13T09:46:07.250Z,59.00
2018-12-13T09:48:35.806Z,58.30
2018-12-13T09:51:05.430Z,58.90
2018-12-13T09:53:33.665Z,57.90
2018-12-13T09:56:01.942Z,57.90
2018-12-13T09:58:30.431Z,56.70
2018-12-13T10:00:58.802Z,57.00
2018-12-13T10:03:27.540Z,56.90
2018-12-13T10:05:56.038Z,57.40
2018-12-13T10:10:53.084Z,57.50
2018-12-13T10:13:21.483Z,57.50
2018-12-13T10:15:50.350Z,58.00
2018-12-13T10:20:46.821Z,57.00
2018-12-13T10:23:15.436Z,57.10
2018-12-13T10:25:44.021Z,57.10
2018-12-13T10:28:12.330Z,57.70
2018-12-13T10:33:09.932Z,57.10
2018-12-13T10:38:06.711Z,57.70
2018-12-13T10:40:34.983Z,58.60
2018-12-13T10:43:03.716Z,58.30
2018-12-13T10:45:32.400Z,58.30
2018-12-13T10:50:29.233Z,58.40
2018-12-13T10:52:57.589Z,58.10
2018-12-13T10:55:26.325Z,58.40
2018-12-13T10:57:54.702Z,57.70
2018-12-13T11:03:20.125Z,57.70
2018-12-13T11:05:49.544Z,57.70
2018-12-13T11:08:17.888Z,58.20
2018-12-13T11:10:46.303Z,58.90
2018-12-13T11:13:14.566Z,58.90
2018-12-13T11:15:43.778Z,58.50
2018-12-13T11:18:12.326Z,57.00
2018-12-13T11:20:40.936Z,57.30
2018-12-13T11:23:09.548Z,57.50
2018-12-13T11:25:37.865Z,57.90
2018-12-13T11:31:51.303Z,57.10
2018-12-13T11:34:19.586Z,57.50
2018-12-13T11:36:47.851Z,57.90
2018-12-13T11:39:16.493Z,57.80
2018-12-13T11:41:45.236Z,58.50
2018-12-13T11:44:13.541Z,58.00
2018-12-13T11:46:42.507Z,58.30
2018-12-13T11:49:12.321Z,58.70
2018-12-13T11:51:40.722Z,59.10
2018-12-13T11:54:44.196Z,58.40
2018-12-13T11:57:13.155Z,60.60
2018-12-13T12:02:09.751Z,59.70
2018-12-13T12:04:38.711Z,59.70
2018-12-13T12:07:07.996Z,60.40
2018-12-13T12:09:36.719Z,60.60
2018-12-13T12:12:05.058Z,62.60
2018-12-13T12:14:34.882Z,64.50
2018-12-13T12:17:04.286Z,64.00
2018-12-13T12:19:32.900Z,63.50
2018-12-13T12:22:03.051Z,62.40
2018-12-13T12:24:31.324Z,63.80
2018-12-13T12:26:59.547Z,63.40
2018-12-13T12:29:27.822Z,63.60
2018-12-13T12:34:35.795Z,63.10
2018-12-13T12:37:04.397Z,63.10
2018-12-13T12:39:32.711Z,63.20
2018-12-13T12:42:02.024Z,62.50
2018-12-13T12:47:02.556Z,62.90
2018-12-13T12:49:30.833Z,63.10
2018-12-13T12:51:59.115Z,63.60
2018-12-13T12:54:27.795Z,63.30
2018-12-13T12:56:56.054Z,63.40
2018-12-13T12:59:24.311Z,62.00
2018-12-13T13:01:52.877Z,61.40
2018-12-13T13:04:21.185Z,61.90
2018-12-13T13:06:49.705Z,61.50
2018-12-13T13:11:46.417Z,61.30
2018-12-13T13:14:14.719Z,61.70
2018-12-13T13:19:11.227Z,61.90
2018-12-13T13:21:40.619Z,62.20
2018-12-13T13:24:09.517Z,60.40
2018-12-13T13:26:37.807Z,61.90
2018-12-13T13:29:08.970Z,62.30
2018-12-13T13:31:37.271Z,61.20
2018-12-13T13:34:05.996Z,61.70
2018-12-13T13:36:34.476Z,60.70
2018-12-13T13:39:05.376Z,60.00
2018-12-13T13:41:36.074Z,61.00
2018-12-13T13:44:05.120Z,61.40
2018-12-13T13:46:33.486Z,61.80
2018-12-13T13:49:02.344Z,61.30
2018-12-13T13:51:30.875Z,62.00
2018-12-13T13:53:59.910Z,62.50
2018-12-13T13:56:28.713Z,62.40
2018-12-13T13:58:57.274Z,63.20
2018-12-13T14:01:25.504Z,62.10
2018-12-13T14:03:54.404Z,62.60
2018-12-13T14:06:23.362Z,63.40
2018-12-13T14:08:51.771Z,63.10
2018-12-13T14:11:20.414Z,63.50
2018-12-13T14:13:49.291Z,63.80
2018-12-13T14:16:18.391Z,63.90
2018-12-13T14:18:46.816Z,63.40
2018-12-13T14:21:15.745Z,63.70
2018-12-13T14:23:44.088Z,64.10
2018-12-13T14:26:12.650Z,63.00
2018-12-13T14:28:40.967Z,63.70
2018-12-13T14:31:09.973Z,63.10
2018-12-13T14:33:38.569Z,63.30
2018-12-13T14:36:07.683Z,62.50
2018-12-13T14:38:36.556Z,63.10
2018-12-13T14:41:12.031Z,64.10
2018-12-13T14:44:09.373Z,62.10
2018-12-13T14:46:40.029Z,60.50
2018-12-13T14:49:11.512Z,60.60
2018-12-13T14:51:45.017Z,60.60
2018-12-13T14:54:19.734Z,60.90
2018-12-13T14:56:54.598Z,61.10
2018-12-13T14:59:25.224Z,61.20
2018-12-13T15:01:56.338Z,60.80
2018-12-13T15:04:27.606Z,60.70
2018-12-13T15:06:59.916Z,60.10
2018-12-13T15:09:32.798Z,60.70
2018-12-13T15:12:04.368Z,60.30
2018-12-13T15:17:18.056Z,58.60
2018-12-13T15:19:49.353Z,58.90
2018-12-13T15:22:20.610Z,59.20
2018-12-13T15:24:54.111Z,59.50
2018-12-13T15:27:25.306Z,60.20
2018-12-13T15:30:00.918Z,59.30
2018-12-13T15:32:32.799Z,59.40
2018-12-13T15:35:03.834Z,59.90
2018-12-13T15:37:35.883Z,59.30
2018-12-13T15:40:13.041Z,58.60
2018-12-13T15:45:17.514Z,58.60
2018-12-13T15:47:49.441Z,59.10
2018-12-13T15:50:21.325Z,59.40
2018-12-13T15:52:53.134Z,58.70
2018-12-13T15:55:25.817Z,59.10
2018-12-13T15:57:57.073Z,59.10
2018-12-13T16:00:28.335Z,59.00
2018-12-13T16:02:59.631Z,59.20
2018-12-13T16:08:03.814Z,59.10
2018-12-13T16:10:35.796Z,59.00
2018-12-13T16:13:09.056Z,59.10
2018-12-13T16:18:13.323Z,59.40
2018-12-13T16:20:44.423Z,60.00
2018-12-13T16:23:15.697Z,60.10
2018-12-13T16:25:46.481Z,59.10
2018-12-13T16:28:17.365Z,59.40
2018-12-13T16:30:48.729Z,60.20
2018-12-13T16:33:24.338Z,59.10
2018-12-13T16:35:57.366Z,58.50
2018-12-13T16:38:32.284Z,59.20
2018-12-13T16:41:04.238Z,59.00
2018-12-13T16:43:33.647Z,58.60
2018-12-13T16:46:03.663Z,59.40
2018-12-13T16:48:32.236Z,59.50
2018-12-13T16:51:00.919Z,58.70
2018-12-13T16:53:29.179Z,59.10
2018-12-13T16:55:57.576Z,59.00
2018-12-13T16:58:26.036Z,61.30
2018-12-13T17:00:54.413Z,61.00
2018-12-13T17:03:42.069Z,59.50
2018-12-13T17:06:10.787Z,58.80
2018-12-13T17:08:42.143Z,58.90
2018-12-13T17:11:12.735Z,59.10
2018-12-13T17:13:41.327Z,59.80
2018-12-13T17:16:10.061Z,58.50
2018-12-13T17:18:38.513Z,58.80
2018-12-13T17:21:06.946Z,59.30
2018-12-13T17:23:35.792Z,60.60
2018-12-13T17:26:04.168Z,59.60
2018-12-13T17:28:33.114Z,58.70
2018-12-13T17:31:01.539Z,59.20
2018-12-13T17:33:29.983Z,58.70
2018-12-13T17:35:58.557Z,58.40
2018-12-13T17:38:27.110Z,58.90
2018-12-13T17:40:56.140Z,58.80
2018-12-13T17:43:24.768Z,58.00
2018-12-13T17:45:54.130Z,58.40
2018-12-13T17:51:01.230Z,58.10
2018-12-13T17:53:30.038Z,59.20
2018-12-13T17:55:58.315Z,58.70
2018-12-13T17:58:27.919Z,59.00
2018-12-13T18:00:56.655Z,58.70
2018-12-13T18:03:25.533Z,59.20
2018-12-13T18:05:53.885Z,58.70
2018-12-13T18:08:24.623Z,59.80
2018-12-13T18:10:53.583Z,60.90
2018-12-13T18:13:22.508Z,59.50
2018-12-13T18:15:50.781Z,58.10
2018-12-13T18:20:47.751Z,58.20
2018-12-13T18:23:16.117Z,58.40
2018-12-13T18:25:44.838Z,59.30
2018-12-13T18:28:13.345Z,58.50
2018-12-13T18:33:12.427Z,57.90
2018-12-13T18:35:40.714Z,58.00
2018-12-13T18:38:09.553Z,58.30
2018-12-13T18:43:18.632Z,58.30
2018-12-13T18:45:47.681Z,59.70
2018-12-13T18:48:16.053Z,58.10
2018-12-13T18:50:44.813Z,58.00
2018-12-13T18:53:13.480Z,58.30
2018-12-13T18:55:43.719Z,58.30
2018-12-13T18:58:13.120Z,58.50
2018-12-13T19:00:41.733Z,58.00
2018-12-13T19:03:11.116Z,58.30
2018-12-13T19:05:39.485Z,58.10
2018-12-13T19:10:41.765Z,58.10
2018-12-13T19:13:07.322Z,58.10
2018-12-13T19:15:36.293Z,58.60
2018-12-13T19:18:04.668Z,57.50
2018-12-13T19:20:33.593Z,58.10
2018-12-13T19:23:02.042Z,58.10
2018-12-13T19:25:31.540Z,58.80
2018-12-13T19:28:00.944Z,57.60
2018-12-13T19:30:29.251Z,58.00
2018-12-13T19:32:57.559Z,57.90
2018-12-13T19:35:25.850Z,58.10
2018-12-13T19:37:54.887Z,58.10
2018-12-13T19:40:23.503Z,58.60
2018-12-13T19:42:52.576Z,58.10
2018-12-13T19:45:21.130Z,58.00
2018-12-13T19:47:49.435Z,58.10
2018-12-13T19:50:17.819Z,59.20
2018-12-13T19:52:46.132Z,58.90
2018-12-13T19:55:14.531Z,57.50
2018-12-13T19:57:43.126Z,57.70
2018-12-13T20:00:11.449Z,57.90
2018-12-13T20:02:40.017Z,59.20
2018-12-13T20:05:08.388Z,57.50
2018-12-13T20:10:06.910Z,57.40
2018-12-13T20:12:35.891Z,57.20
2018-12-13T20:15:04.343Z,55.30
2018-12-13T20:17:32.928Z,57.60
2018-12-13T20:20:01.615Z,57.30
2018-12-13T20:22:30.277Z,57.90
2018-12-13T20:24:58.648Z,57.60
2018-12-13T20:27:27.898Z,57.60
2018-12-13T20:29:56.965Z,57.20
2018-12-13T20:32:27.692Z,58.00
2018-12-13T20:34:56.366Z,58.10
2018-12-13T20:37:24.739Z,57.70
2018-12-13T20:39:53.313Z,58.30
2018-12-13T20:42:22.063Z,58.00
2018-12-13T20:47:18.771Z,57.80
2018-12-13T20:49:48.087Z,58.00
2018-12-13T20:52:16.702Z,57.40
2018-12-13T20:54:45.831Z,57.20
2018-12-13T20:57:14.126Z,57.30
2018-12-13T20:59:42.376Z,57.40
2018-12-13T21:02:10.726Z,57.40
2018-12-13T21:04:39.897Z,57.60
2018-12-13T21:10:06.645Z,56.90
2018-12-13T21:12:35.781Z,57.10
2018-12-13T21:15:08.846Z,57.30
2018-12-13T21:17:39.549Z,58.00
2018-12-13T21:22:37.749Z,57.40
2018-12-13T21:25:07.422Z,57.60
2018-12-13T21:27:37.138Z,57.60
2018-12-13T21:30:06.788Z,57.30
2018-12-13T21:32:36.117Z,57.30
2018-12-13T21:35:06.004Z,57.40
2018-12-13T21:37:34.674Z,57.80
2018-12-13T21:40:04.357Z,57.40
2018-12-13T21:42:32.982Z,57.60
2018-12-13T21:45:03.035Z,58.20
2018-12-13T21:47:31.609Z,57.70
2018-12-13T21:50:06.239Z,57.80
2018-12-13T21:52:34.977Z,58.30
2018-12-13T21:55:04.267Z,58.10
2018-12-13T21:57:34.413Z,57.60
2018-12-13T22:00:05.352Z,57.40
2018-12-13T22:02:33.695Z,58.00
2018-12-13T22:05:02.288Z,57.90
2018-12-13T22:07:31.241Z,58.40
2018-12-13T22:12:28.814Z,57.90
2018-12-13T22:17:27.491Z,56.40
2018-12-13T22:19:56.661Z,57.40
2018-12-13T22:22:26.018Z,57.50
2018-12-13T22:27:22.712Z,57.20
2018-12-13T22:29:51.332Z,57.70
2018-12-13T22:32:19.604Z,58.40
2018-12-13T22:34:47.986Z,57.90
2018-12-13T22:37:16.764Z,58.10
2018-12-13T22:39:45.343Z,57.90
2018-12-13T22:42:13.663Z,57.70
2018-12-13T22:44:41.984Z,57.70
2018-12-13T22:47:11.851Z,58.00
2018-12-13T22:49:40.221Z,58.00
2018-12-13T22:52:09.701Z,57.70
2018-12-13T22:54:37.961Z,58.20
2018-12-13T23:02:03.647Z,58.20
2018-12-13T23:04:32.142Z,59.20
2018-12-13T23:07:00.423Z,58.70
2018-12-13T23:09:29.364Z,58.80
2018-12-13T23:11:57.772Z,60.00
2018-12-13T23:14:26.087Z,59.10
2018-12-13T23:16:54.505Z,58.20
2018-12-13T23:19:23.415Z,59.60
2018-12-13T23:21:51.707Z,59.10
2018-12-13T23:24:20.053Z,59.40
2018-12-13T23:26:48.745Z,58.10
2018-12-13T23:29:17.442Z,58.70
2018-12-13T23:31:45.941Z,59.00
2018-12-13T23:34:14.636Z,58.60
2018-12-13T23:36:43.269Z,57.70
2018-12-13T23:39:18.340Z,59.70
2018-12-13T23:41:47.729Z,58.10
2018-12-13T23:44:16.960Z,58.30
2018-12-13T23:46:45.978Z,58.40
2018-12-13T23:49:14.536Z,58.30
2018-12-13T23:51:42.901Z,58.50
2018-12-13T23:54:11.216Z,58.70
2018-12-13T23:56:39.491Z,57.80
